createdAt,value
2023-02-25T00:00:25.156Z,5.30
2023-02-25T00:03:12.622Z,5.26
2023-02-25T00:06:05.168Z,5.24
2023-02-25T00:08:52.937Z,5.25
2023-02-25T00:11:39.904Z,5.26
2023-02-25T00:14:28.015Z,5.27
2023-02-25T00:17:15.070Z,5.25
2023-02-25T00:20:02.352Z,5.25
2023-02-25T00:22:49.637Z,5.23
2023-02-25T00:25:36.732Z,5.25
2023-02-25T00:28:23.617Z,5.26
2023-02-25T00:31:13.494Z,5.31
2023-02-25T00:34:00.504Z,5.32
2023-02-25T00:36:48.312Z,5.35
2023-02-25T00:39:44.659Z,5.38
2023-02-25T00:42:31.618Z,5.39
2023-02-25T00:45:18.599Z,5.40
2023-02-25T00:48:05.681Z,5.38
2023-02-25T00:50:52.589Z,5.40
2023-02-25T00:53:40.941Z,5.43
2023-02-25T00:56:27.937Z,5.42
2023-02-25T00:59:14.928Z,5.46
2023-02-25T01:02:02.130Z,5.51
2023-02-25T01:04:49.226Z,5.55
2023-02-25T01:07:38.126Z,5.59
2023-02-25T01:10:25.051Z,5.60
2023-02-25T01:13:12.047Z,5.63
2023-02-25T01:15:58.972Z,5.63
2023-02-25T01:18:46.665Z,5.64
2023-02-25T01:21:36.896Z,5.65
2023-02-25T01:24:30.074Z,5.59
2023-02-25T01:27:17.094Z,5.50
2023-02-25T01:30:05.468Z,5.40
2023-02-25T01:32:52.585Z,5.31
2023-02-25T01:35:39.583Z,5.23
2023-02-25T01:38:27.434Z,5.18
2023-02-25T01:41:14.404Z,5.16
2023-02-25T01:44:29.160Z,5.12
2023-02-25T01:47:22.459Z,5.08
2023-02-25T01:50:10.296Z,5.02
2023-02-25T01:53:02.104Z,4.93
2023-02-25T01:55:49.586Z,4.83
2023-02-25T01:58:36.954Z,4.74
2023-02-25T02:01:27.646Z,4.71
2023-02-25T02:04:16.730Z,4.66
2023-02-25T02:07:04.400Z,4.63
2023-02-25T02:09:57.277Z,4.65
2023-02-25T02:12:47.406Z,4.68
2023-02-25T02:15:40.178Z,4.68
2023-02-25T02:18:30.318Z,4.68
2023-02-25T02:21:41.288Z,4.69
2023-02-25T02:24:40.278Z,4.68
2023-02-25T02:27:58.521Z,4.73
2023-02-25T02:31:16.333Z,4.77
2023-02-25T02:34:41.972Z,4.78
2023-02-25T02:37:46.154Z,4.76
2023-02-25T02:40:43.240Z,4.73
2023-02-25T02:43:41.146Z,4.71
2023-02-25T02:46:35.806Z,4.70
2023-02-25T02:49:57.803Z,4.68
2023-02-25T02:52:51.394Z,4.67
2023-02-25T02:55:48.227Z,4.72
2023-02-25T02:58:43.265Z,4.73
2023-02-25T03:01:35.012Z,4.73
2023-02-25T03:04:28.041Z,4.73
2023-02-25T03:07:18.004Z,4.75
2023-02-25T03:10:08.670Z,4.74
2023-02-25T03:12:55.805Z,4.71
2023-02-25T03:15:44.152Z,4.69
2023-02-25T03:18:53.245Z,4.68
2023-02-25T03:21:49.693Z,4.67
2023-02-25T03:24:46.120Z,4.68
2023-02-25T03:27:43.559Z,4.69
2023-02-25T03:30:47.022Z,4.67
2023-02-25T03:33:48.606Z,4.64
2023-02-25T03:36:46.082Z,4.63
2023-02-25T03:39:38.619Z,4.68
2023-02-25T03:42:32.381Z,4.69
2023-02-25T03:45:21.372Z,4.72
2023-02-25T03:48:10.950Z,4.75
2023-02-25T03:51:02.873Z,4.76
2023-02-25T03:53:50.362Z,4.80
2023-02-25T03:56:46.261Z,4.82
2023-02-25T03:59:33.178Z,4.85
2023-02-25T04:02:21.326Z,4.87
2023-02-25T04:05:10.206Z,4.89
2023-02-25T04:07:59.262Z,4.90
2023-02-25T04:10:47.165Z,4.93
2023-02-25T04:13:34.135Z,4.94
2023-02-25T04:16:21.326Z,4.98
2023-02-25T04:19:08.435Z,5.01
2023-02-25T04:21:55.360Z,5.06
2023-02-25T04:24:42.286Z,5.11
2023-02-25T04:27:29.364Z,5.13
2023-02-25T04:30:16.342Z,5.17
2023-02-25T04:33:03.351Z,5.18
2023-02-25T04:35:51.032Z,5.19
2023-02-25T04:38:38.037Z,5.20
2023-02-25T04:41:29.623Z,5.22
2023-02-25T04:44:16.565Z,5.21
2023-02-25T04:47:03.611Z,5.22
2023-02-25T04:49:50.558Z,5.21
2023-02-25T04:52:37.645Z,5.20
2023-02-25T04:55:24.545Z,5.21
2023-02-25T04:58:11.469Z,5.25
2023-02-25T05:01:03.148Z,5.27
2023-02-25T05:03:50.271Z,5.32
2023-02-25T05:06:37.296Z,5.33
2023-02-25T05:09:24.261Z,5.35
2023-02-25T05:12:11.211Z,5.34
2023-02-25T05:14:58.196Z,5.37
2023-02-25T05:17:45.158Z,5.37
2023-02-25T05:20:32.098Z,5.36
2023-02-25T05:23:19.029Z,5.38
2023-02-25T05:26:06.578Z,5.38
2023-02-25T05:28:56.071Z,5.39
2023-02-25T05:31:43.086Z,5.39
2023-02-25T05:34:30.152Z,5.41
2023-02-25T05:37:17.208Z,5.40
2023-02-25T05:40:04.546Z,5.40
2023-02-25T05:42:51.508Z,5.40
2023-02-25T05:45:38.469Z,5.39
2023-02-25T05:48:25.757Z,5.39
2023-02-25T05:51:18.688Z,5.38
2023-02-25T05:54:05.813Z,5.38
2023-02-25T05:56:53.076Z,5.36
2023-02-25T05:59:39.972Z,5.34
2023-02-25T06:02:27.348Z,5.33
2023-02-25T06:05:14.317Z,5.31
2023-02-25T06:08:01.381Z,5.28
2023-02-25T06:10:48.589Z,5.27
2023-02-25T06:13:35.582Z,5.29
2023-02-25T06:16:25.992Z,5.31
2023-02-25T06:19:13.286Z,5.31
2023-02-25T06:22:00.324Z,5.31
2023-02-25T06:24:47.242Z,5.31
2023-02-25T06:27:34.171Z,5.30
2023-02-25T06:30:21.120Z,5.29
2023-02-25T06:33:08.087Z,5.30
2023-02-25T06:35:55.691Z,5.30
2023-02-25T06:38:44.173Z,5.30
2023-02-25T06:41:31.143Z,5.30
2023-02-25T06:44:18.066Z,5.29
2023-02-25T06:47:05.062Z,5.28
2023-02-25T06:49:51.980Z,5.28
2023-02-25T06:52:38.947Z,5.26
2023-02-25T06:55:26.715Z,5.24
2023-02-25T06:58:15.596Z,5.22
2023-02-25T07:01:06.981Z,5.21
2023-02-25T07:03:54.054Z,5.23
2023-02-25T07:06:41.037Z,5.21
2023-02-25T07:09:28.059Z,5.21
2023-02-25T07:12:15.094Z,5.20
2023-02-25T07:15:02.163Z,5.20
2023-02-25T07:17:49.490Z,5.21
2023-02-25T07:20:39.187Z,5.20
2023-02-25T07:23:26.304Z,5.22
2023-02-25T07:26:14.273Z,5.23
2023-02-25T07:29:01.379Z,5.23
2023-02-25T07:31:48.486Z,5.23
2023-02-25T07:34:36.981Z,5.23
2023-02-25T07:37:23.908Z,5.21
2023-02-25T07:40:13.047Z,5.20
2023-02-25T07:43:00.045Z,5.21
2023-02-25T07:45:49.539Z,5.21
2023-02-25T07:48:36.707Z,5.23
2023-02-25T07:51:25.466Z,5.22
2023-02-25T07:54:12.596Z,5.24
2023-02-25T07:56:59.571Z,5.25
2023-02-25T07:59:46.553Z,5.28
2023-02-25T08:02:33.558Z,5.29
2023-02-25T08:05:22.723Z,5.30
2023-02-25T08:08:09.804Z,5.32
2023-02-25T08:10:56.742Z,5.32
2023-02-25T08:13:43.739Z,5.32
2023-02-25T08:16:30.705Z,5.34
2023-02-25T08:19:17.586Z,5.35
2023-02-25T08:22:04.831Z,5.37
2023-02-25T08:24:51.810Z,5.38
2023-02-25T08:27:38.895Z,5.39
2023-02-25T08:30:25.849Z,5.41
2023-02-25T08:33:12.786Z,5.43
2023-02-25T08:36:12.320Z,5.45
2023-02-25T08:39:00.303Z,5.49
2023-02-25T08:41:47.235Z,5.54
2023-02-25T08:44:34.158Z,5.62
2023-02-25T08:47:21.082Z,5.61
2023-02-25T08:50:09.921Z,5.61
2023-02-25T08:52:57.888Z,5.63
2023-02-25T08:55:44.807Z,5.68
2023-02-25T08:58:32.735Z,5.71
2023-02-25T09:01:20.427Z,5.75
2023-02-25T09:04:07.498Z,5.79
2023-02-25T09:06:54.722Z,5.85
2023-02-25T09:09:41.783Z,5.92
2023-02-25T09:12:30.728Z,5.99
2023-02-25T09:15:17.696Z,6.08
2023-02-25T09:18:04.859Z,6.18
2023-02-25T09:20:51.956Z,6.29
2023-02-25T09:23:38.933Z,6.32
2023-02-25T09:26:26.024Z,6.32
2023-02-25T09:29:13.054Z,6.23
2023-02-25T09:32:00.140Z,6.16
2023-02-25T09:34:49.280Z,6.12
2023-02-25T09:37:36.306Z,6.10
2023-02-25T09:40:23.375Z,6.12
2023-02-25T09:43:28.352Z,6.08
2023-02-25T09:46:19.256Z,6.00
2023-02-25T09:49:21.867Z,5.94
2023-02-25T09:52:12.262Z,5.95
2023-02-25T09:55:06.623Z,5.97
2023-02-25T09:58:03.068Z,6.01
2023-02-25T10:01:15.605Z,6.05
2023-02-25T10:04:14.701Z,6.22
2023-02-25T10:07:12.969Z,6.37
2023-02-25T10:10:15.328Z,6.49
2023-02-25T10:13:16.634Z,6.44
2023-02-25T10:16:54.484Z,6.30
2023-02-25T10:20:02.663Z,6.21
2023-02-25T10:23:08.077Z,6.10
2023-02-25T10:26:03.525Z,6.01
2023-02-25T10:29:00.615Z,6.14
2023-02-25T10:31:47.920Z,6.27
2023-02-25T10:34:38.956Z,6.38
2023-02-25T10:37:38.168Z,6.40
2023-02-25T10:40:29.270Z,6.32
2023-02-25T10:43:22.608Z,6.19
2023-02-25T10:46:37.508Z,6.15
2023-02-25T10:49:27.293Z,6.16
2023-02-25T10:52:17.635Z,6.09
2023-02-25T10:55:04.956Z,6.01
2023-02-25T10:57:52.103Z,5.94
2023-02-25T11:00:41.068Z,6.02
2023-02-25T11:03:31.634Z,6.14
2023-02-25T11:06:24.864Z,6.23
2023-02-25T11:09:21.212Z,6.29
2023-02-25T11:12:08.094Z,6.35
2023-02-25T11:14:55.053Z,6.48
2023-02-25T11:17:44.746Z,6.65
2023-02-25T11:20:32.579Z,6.85
2023-02-25T11:23:31.299Z,7.00
2023-02-25T11:26:30.334Z,7.10
2023-02-25T11:29:23.021Z,7.29
2023-02-25T11:32:15.585Z,7.39
2023-02-25T11:35:09.204Z,7.36
2023-02-25T11:37:58.455Z,7.22
2023-02-25T11:40:45.689Z,7.19
2023-02-25T11:43:40.723Z,7.14
2023-02-25T11:46:32.763Z,7.27
2023-02-25T11:49:43.790Z,7.29
2023-02-25T11:52:39.650Z,7.25
2023-02-25T11:55:52.455Z,7.24
2023-02-25T11:59:13.568Z,7.29
2023-02-25T12:02:19.288Z,7.32
2023-02-25T12:05:09.162Z,7.37
2023-02-25T12:08:19.331Z,7.41
2023-02-25T12:11:24.834Z,7.41
2023-02-25T12:14:50.926Z,7.40
2023-02-25T12:21:19.874Z,7.35
2023-02-25T12:24:12.480Z,7.27
2023-02-25T12:27:13.143Z,7.25
2023-02-25T12:30:16.190Z,7.23
2023-02-25T12:33:10.279Z,7.20
2023-02-25T12:36:20.266Z,7.11
2023-02-25T12:39:19.224Z,7.09
2023-02-25T12:42:34.301Z,7.09
2023-02-25T12:45:59.523Z,7.03
2023-02-25T12:49:11.229Z,6.97
2023-02-25T12:52:17.510Z,6.91
2023-02-25T12:55:41.790Z,6.73
2023-02-25T12:59:04.688Z,6.66
2023-02-25T13:02:02.997Z,6.76
2023-02-25T13:04:58.866Z,6.98
2023-02-25T13:07:56.222Z,6.95
2023-02-25T13:11:16.366Z,7.05
2023-02-25T13:14:03.280Z,7.12
2023-02-25T13:16:58.425Z,7.25
2023-02-25T13:20:06.920Z,7.35
2023-02-25T13:22:57.146Z,7.46
2023-02-25T13:26:11.749Z,7.47
2023-02-25T13:29:34.135Z,7.27
2023-02-25T13:32:49.779Z,7.52
2023-02-25T13:36:02.804Z,7.74
2023-02-25T13:39:01.907Z,7.60
2023-02-25T13:41:48.796Z,7.48
2023-02-25T13:44:47.929Z,7.41
2023-02-25T13:47:38.171Z,7.39
2023-02-25T13:50:43.805Z,7.35
2023-02-25T13:53:49.066Z,7.32
2023-02-25T13:56:46.369Z,7.24
2023-02-25T14:00:01.847Z,7.09
2023-02-25T14:03:36.432Z,7.00
2023-02-25T14:06:23.336Z,7.18
2023-02-25T14:09:44.329Z,7.42
2023-02-25T14:13:01.881Z,7.50
2023-02-25T14:16:07.739Z,7.81
2023-02-25T14:19:20.046Z,8.05
2023-02-25T14:22:43.793Z,7.85
2023-02-25T14:26:01.739Z,7.55
2023-02-25T14:29:14.905Z,7.45
2023-02-25T14:32:21.281Z,7.42
2023-02-25T14:35:20.862Z,7.41
2023-02-25T14:38:15.047Z,7.44
2023-02-25T14:41:20.331Z,7.41
2023-02-25T14:44:14.542Z,7.41
2023-02-25T14:47:11.211Z,7.46
2023-02-25T14:50:00.597Z,7.49
2023-02-25T14:52:53.186Z,7.44
2023-02-25T14:56:01.250Z,7.37
2023-02-25T14:59:00.319Z,7.31
2023-02-25T15:02:21.074Z,7.29
2023-02-25T15:05:34.083Z,7.17
2023-02-25T15:08:26.695Z,7.21
2023-02-25T15:11:37.930Z,7.27
2023-02-25T15:15:03.443Z,7.18
2023-02-25T15:18:13.853Z,7.09
2023-02-25T15:21:29.537Z,7.18
2023-02-25T15:24:36.892Z,7.14
2023-02-25T15:27:45.041Z,7.07
2023-02-25T15:31:03.366Z,7.02
2023-02-25T15:33:50.618Z,6.93
2023-02-25T15:36:44.958Z,6.89
2023-02-25T15:39:41.279Z,6.87
2023-02-25T15:42:51.698Z,6.77
2023-02-25T15:45:40.836Z,6.63
2023-02-25T15:48:32.489Z,6.57
2023-02-25T15:51:38.963Z,6.63
2023-02-25T15:54:28.803Z,6.66
2023-02-25T15:57:21.521Z,6.63
2023-02-25T16:00:28.379Z,6.57
2023-02-25T16:03:36.420Z,6.65
2023-02-25T16:06:39.490Z,6.78
2023-02-25T16:09:27.707Z,6.83
2023-02-25T16:12:15.840Z,6.79
2023-02-25T16:15:04.089Z,6.66
2023-02-25T16:17:52.544Z,6.56
2023-02-25T16:20:46.773Z,6.46
2023-02-25T16:23:39.065Z,6.40
2023-02-25T16:26:55.450Z,6.41
2023-02-25T16:30:16.819Z,6.39
2023-02-25T16:33:12.113Z,6.37
2023-02-25T16:36:24.891Z,6.34
2023-02-25T16:39:18.920Z,6.33
2023-02-25T16:42:11.762Z,6.29
2023-02-25T16:45:05.028Z,6.21
2023-02-25T16:47:58.127Z,6.19
2023-02-25T16:50:47.960Z,6.17
2023-02-25T16:53:35.027Z,6.15
2023-02-25T16:56:25.896Z,6.12
2023-02-25T16:59:13.000Z,6.11
2023-02-25T17:02:21.819Z,6.15
2023-02-25T17:05:23.792Z,6.21
2023-02-25T17:08:16.535Z,6.27
2023-02-25T17:11:05.351Z,6.25
2023-02-25T17:13:56.117Z,6.26
2023-02-25T17:16:47.910Z,6.26
2023-02-25T17:19:34.940Z,6.23
2023-02-25T17:22:23.628Z,6.22
2023-02-25T17:25:16.179Z,6.17
2023-02-25T17:28:04.287Z,6.14
2023-02-25T17:30:52.201Z,6.11
2023-02-25T17:33:54.300Z,6.08
2023-02-25T17:36:41.592Z,6.05
2023-02-25T17:39:29.757Z,6.08
2023-02-25T17:42:31.592Z,6.05
2023-02-25T17:45:47.205Z,6.03
2023-02-25T17:48:43.275Z,6.01
2023-02-25T17:51:33.901Z,5.99
2023-02-25T17:54:24.389Z,5.98
2023-02-25T17:57:23.518Z,5.98
2023-02-25T18:00:26.177Z,5.97
2023-02-25T18:03:21.244Z,5.94
2023-02-25T18:06:43.819Z,5.94
2023-02-25T18:09:38.132Z,5.96
2023-02-25T18:12:28.650Z,5.94
2023-02-25T18:15:19.207Z,5.95
2023-02-25T18:18:07.652Z,5.94
2023-02-25T18:20:58.094Z,5.92
2023-02-25T18:23:46.149Z,5.93
2023-02-25T18:26:33.794Z,5.93
2023-02-25T18:29:20.750Z,5.94
2023-02-25T18:32:07.868Z,5.93
2023-02-25T18:34:54.982Z,5.94
2023-02-25T18:37:43.454Z,5.93
2023-02-25T18:40:38.935Z,5.95
2023-02-25T18:43:30.648Z,5.95
2023-02-25T18:46:17.603Z,5.95
2023-02-25T18:49:04.512Z,5.95
2023-02-25T18:51:52.144Z,5.94
2023-02-25T18:54:40.741Z,5.94
2023-02-25T18:57:29.194Z,5.94
2023-02-25T19:00:19.359Z,5.93
2023-02-25T19:03:07.369Z,5.92
2023-02-25T19:05:54.650Z,5.94
2023-02-25T19:08:41.593Z,5.95
2023-02-25T19:11:33.343Z,5.95
2023-02-25T19:14:21.102Z,5.94
2023-02-25T19:17:14.865Z,5.92
2023-02-25T19:20:02.248Z,5.91
2023-02-25T19:22:52.048Z,5.91
2023-02-25T19:25:39.148Z,5.90
2023-02-25T19:28:27.045Z,5.90
2023-02-25T19:31:14.129Z,5.90
2023-02-25T19:34:01.117Z,5.87
2023-02-25T19:36:48.188Z,5.87
2023-02-25T19:39:35.148Z,5.88
2023-02-25T19:42:22.117Z,5.86
2023-02-25T19:45:11.986Z,5.87
2023-02-25T19:47:59.869Z,5.89
2023-02-25T19:50:48.111Z,5.88
2023-02-25T19:53:35.679Z,5.87
2023-02-25T19:56:23.222Z,5.90
2023-02-25T19:59:12.026Z,5.91
2023-02-25T20:01:59.109Z,5.92
2023-02-25T20:04:46.028Z,5.92
2023-02-25T20:07:33.235Z,5.91
2023-02-25T20:10:21.837Z,5.90
2023-02-25T20:13:08.800Z,5.88
2023-02-25T20:16:01.289Z,5.88
2023-02-25T20:18:52.199Z,5.87
2023-02-25T20:21:39.126Z,5.89
2023-02-25T20:24:26.231Z,5.90
2023-02-25T20:27:13.179Z,5.89
2023-02-25T20:30:00.256Z,5.91
2023-02-25T20:32:47.289Z,5.93
2023-02-25T20:35:34.512Z,5.91
2023-02-25T20:38:33.903Z,5.94
2023-02-25T20:41:20.964Z,5.96
2023-02-25T20:44:08.560Z,5.96
2023-02-25T20:46:55.870Z,5.94
2023-02-25T20:49:42.986Z,5.93
2023-02-25T20:52:30.180Z,5.94
2023-02-25T20:55:17.160Z,5.96
2023-02-25T20:58:04.114Z,5.96
2023-02-25T21:00:51.096Z,5.97
2023-02-25T21:03:38.107Z,5.96
2023-02-25T21:06:26.587Z,5.97
2023-02-25T21:09:13.714Z,5.98
2023-02-25T21:12:00.684Z,6.00
2023-02-25T21:14:47.646Z,6.00
2023-02-25T21:17:34.622Z,6.00
2023-02-25T21:20:21.562Z,6.00
2023-02-25T21:23:11.324Z,6.01
2023-02-25T21:25:58.551Z,5.98
2023-02-25T21:28:46.764Z,5.98
2023-02-25T21:31:34.188Z,6.00
2023-02-25T21:34:21.340Z,6.01
2023-02-25T21:37:08.301Z,6.03
2023-02-25T21:39:56.873Z,6.03
2023-02-25T21:42:43.788Z,6.01
2023-02-25T21:45:30.723Z,6.01
2023-02-25T21:48:17.654Z,6.01
2023-02-25T21:51:04.966Z,6.02
2023-02-25T21:53:57.092Z,6.01
2023-02-25T21:56:44.094Z,6.01
2023-02-25T21:59:31.012Z,6.02
2023-02-25T22:02:17.966Z,6.01
2023-02-25T22:05:05.247Z,6.00
2023-02-25T22:07:52.188Z,6.01
2023-02-25T22:10:40.075Z,6.01
2023-02-25T22:13:32.659Z,6.01
2023-02-25T22:16:21.284Z,6.01
2023-02-25T22:19:08.341Z,6.02
2023-02-25T22:21:55.323Z,6.03
2023-02-25T22:24:42.276Z,6.04
2023-02-25T22:27:29.671Z,6.04
2023-02-25T22:30:16.882Z,6.05
2023-02-25T22:33:03.822Z,6.04
2023-02-25T22:35:59.124Z,6.04
2023-02-25T22:38:47.405Z,6.04
2023-02-25T22:41:35.619Z,6.04
2023-02-25T22:44:22.878Z,6.03
2023-02-25T22:47:09.800Z,6.04
2023-02-25T22:49:56.818Z,6.04
2023-02-25T22:52:44.893Z,6.03
2023-02-25T22:55:33.851Z,6.03
2023-02-25T22:58:20.817Z,6.04
2023-02-25T23:01:08.881Z,6.03
2023-02-25T23:03:56.639Z,6.02
2023-02-25T23:06:45.128Z,6.04
2023-02-25T23:09:32.400Z,6.03
2023-02-25T23:12:21.175Z,6.03
2023-02-25T23:15:09.480Z,6.04
2023-02-25T23:17:56.468Z,6.05
2023-02-25T23:20:43.873Z,6.05
2023-02-25T23:23:38.392Z,6.05
2023-02-25T23:26:29.525Z,6.05
2023-02-25T23:29:16.422Z,6.05
2023-02-25T23:32:03.561Z,6.01
2023-02-25T23:34:51.489Z,5.99
2023-02-25T23:37:38.651Z,5.94
2023-02-25T23:40:25.735Z,5.93
2023-02-25T23:43:12.735Z,5.91
2023-02-25T23:46:06.699Z,5.88
2023-02-25T23:48:58.480Z,5.86
2023-02-25T23:51:47.688Z,5.85
2023-02-25T23:54:34.687Z,5.85
2023-02-25T23:57:21.724Z,5.88
